Airfield :
LOGIN :

Register | Disclaimer

   EN    FR    IT 

 










Legend :    VFR   Marginal VFR   IFR   Intensive IFR   Very Intensive IFR
Visi :
Ceiling :
>= 8 km
>= 3000ft
5 to 8 km
1000 to 3000 ft
1500m to 5 km
500 to 1000 ft
800 to 1500m
200 to 500 ft
< 800m
< 200 ft
Symbols :   Thunderstorms  Fog  Heavy snow  Heavy precipitations  Wind > 20 kt
SIGMETs :     Misc.  Thunderstorms  Icing  Turbulence  Mountain Waves  Volcanic Ashes






- Airport Elevation : 670 ft
- IATA code : MSQ


UMMS - Minsk - 2

CURRENT METAR :
  • 301020Z 21008G12MPS 4100 1800N R13L/1800 SN BLSN BKN005 OVC013 M01/M02 Q0996 NOSIG RMK QBB160

EXPIRED METARs :
  • 301000Z 20008G11MPS 1600 1200S R13L/1600 R13R/1700D SN BLSN BKN005 OVC013 M01/M02 Q0997 NOSIG RMK QBB160
  • 300955Z 21008G11MPS 1400 1300S R13L/1400 R13R/1400D SN BLSN BKN005 OVC013 M01/M02 Q0997 NOSIG RMK QBB170
  • 300938Z 21008G12MPS 2000 R13R/2000D SN BLSN BKN006 OVC013 M01/M02 Q0997 NOSIG RMK QBB190
  • 300919Z 21008G12MPS 7000 3000W -SN BLSN BKN006 OVC016 M01/M02 Q0998 NOSIG RMK QBB200
  • 300904Z 21009G15MPS 9000 -SN BLSN OVC007 M01/M02 Q0998 NOSIG
  • 300830Z 22008G12MPS 9999 OVC007 M01/M02 Q0999 REBLSN NOSIG
  • 300819Z 22007G11MPS 9999 OVC008 M01/M02 Q0999 NOSIG
  • 300800Z 22007G12MPS 8000 -SN BLSN OVC008 M01/M02 Q0999 NOSIG
  • 300755Z 22008G11MPS 8000 -SN BLSN OVC008 M01/M02 Q0999 NOSIG
  • 300730Z 22008G13MPS 9999 OVC008 M01/M02 Q1000 NOSIG

TAF TAF UMMS
Valid from the 30 at 06:00 until the 31 at 06:00 UTC


300502Z 3006/3106 22008G13MPS 4000 -SNRA BR OVC004
TEMPO 3006/3024 24011G16MPS 0300 FZDZ +SHSNRA OVC002 BKN012CB
TEMPO 3100/3106 23009G14MPS 0800 FZDZ +SHSNRA OVC002 BKN012CB



MET'MAP, your aeronautical weather chart ! - Copyright ORBIFLY December 2007 - Disclaimer

ORBIFLY MET'MAP TEAM :

Programming & Development : Alexandra Zaïnal
Original concept : Baudouin d'Aumeries
Technical & hardware support : Manuel Goepfert
Assistance : Marc-Olivier Méhu




SOURCES & CREDITS :

   NOAA